sensor_id;sensor_type;location;lat;lon;timestamp;temperature;humidity
36002;DHT22;22070;50.922;5.430;2023-10-19T00:02:08;15.70;99.90
36002;DHT22;22070;50.922;5.430;2023-10-19T00:04:34;15.80;99.90
36002;DHT22;22070;50.922;5.430;2023-10-19T00:07:03;15.80;99.90
36002;DHT22;22070;50.922;5.430;2023-10-19T00:09:32;15.90;99.90
36002;DHT22;22070;50.922;5.430;2023-10-19T00:12:03;15.80;99.90
36002;DHT22;22070;50.922;5.430;2023-10-19T00:14:30;15.80;99.90
36002;DHT22;22070;50.922;5.430;2023-10-19T00:16:57;15.80;99.90
36002;DHT22;22070;50.922;5.430;2023-10-19T00:19:26;15.90;99.90
36002;DHT22;22070;50.922;5.430;2023-10-19T00:21:55;15.80;99.90
36002;DHT22;22070;50.922;5.430;2023-10-19T00:24:27;15.80;99.90
36002;DHT22;22070;50.922;5.430;2023-10-19T00:26:53;15.90;99.90
36002;DHT22;22070;50.922;5.430;2023-10-19T00:29:20;15.90;99.90
36002;DHT22;22070;50.922;5.430;2023-10-19T00:31:59;15.90;99.90
36002;DHT22;22070;50.922;5.430;2023-10-19T00:34:27;15.90;99.90
36002;DHT22;22070;50.922;5.430;2023-10-19T00:36:55;16.00;99.90
36002;DHT22;22070;50.922;5.430;2023-10-19T00:39:35;16.10;99.90
36002;DHT22;22070;50.922;5.430;2023-10-19T00:42:20;16.00;99.90
36002;DHT22;22070;50.922;5.430;2023-10-19T00:44:50;16.00;99.90
36002;DHT22;22070;50.922;5.430;2023-10-19T00:47:17;16.00;99.90
36002;DHT22;22070;50.922;5.430;2023-10-19T00:49:49;16.00;99.90
36002;DHT22;22070;50.922;5.430;2023-10-19T00:52:14;16.10;99.90
36002;DHT22;22070;50.922;5.430;2023-10-19T00:54:50;16.20;99.90
36002;DHT22;22070;50.922;5.430;2023-10-19T00:57:16;16.10;99.90
36002;DHT22;22070;50.922;5.430;2023-10-19T00:59:46;16.20;99.90
36002;DHT22;22070;50.922;5.430;2023-10-19T01:02:18;16.20;99.90
36002;DHT22;22070;50.922;5.430;2023-10-19T01:04:45;16.20;99.90
36002;DHT22;22070;50.922;5.430;2023-10-19T01:07:17;16.10;99.90
36002;DHT22;22070;50.922;5.430;2023-10-19T01:10:06;16.10;99.90
36002;DHT22;22070;50.922;5.430;2023-10-19T01:12:46;16.20;99.90
36002;DHT22;22070;50.922;5.430;2023-10-19T01:15:13;16.20;99.90
36002;DHT22;22070;50.922;5.430;2023-10-19T01:17:51;16.30;99.90
36002;DHT22;22070;50.922;5.430;2023-10-19T01:20:21;16.30;99.90
36002;DHT22;22070;50.922;5.430;2023-10-19T01:25:54;16.30;99.90
36002;DHT22;22070;50.922;5.430;2023-10-19T01:28:24;16.20;99.90
36002;DHT22;22070;50.922;5.430;2023-10-19T01:31:16;16.30;99.90
36002;DHT22;22070;50.922;5.430;2023-10-19T01:33:45;16.30;99.90
36002;DHT22;22070;50.922;5.430;2023-10-19T01:36:12;16.30;99.90
36002;DHT22;22070;50.922;5.430;2023-10-19T01:38:53;16.40;99.90
36002;DHT22;22070;50.922;5.430;2023-10-19T01:41:21;16.40;99.90
36002;DHT22;22070;50.922;5.430;2023-10-19T01:43:48;16.50;99.90
36002;DHT22;22070;50.922;5.430;2023-10-19T01:46:16;16.40;99.90
36002;DHT22;22070;50.922;5.430;2023-10-19T01:48:53;16.40;99.90
36002;DHT22;22070;50.922;5.430;2023-10-19T01:51:21;16.40;99.90
36002;DHT22;22070;50.922;5.430;2023-10-19T01:53:48;16.40;99.90
36002;DHT22;22070;50.922;5.430;2023-10-19T01:56:15;16.30;99.90
36002;DHT22;22070;50.922;5.430;2023-10-19T01:58:45;16.20;99.90
36002;DHT22;22070;50.922;5.430;2023-10-19T02:01:15;16.30;99.90
36002;DHT22;22070;50.922;5.430;2023-10-19T02:04:04;16.30;99.90
36002;DHT22;22070;50.922;5.430;2023-10-19T02:06:32;16.30;99.90
36002;DHT22;22070;50.922;5.430;2023-10-19T02:09:08;16.30;99.90
36002;DHT22;22070;50.922;5.430;2023-10-19T02:11:35;16.20;99.90
36002;DHT22;22070;50.922;5.430;2023-10-19T02:14:03;16.20;99.90
36002;DHT22;22070;50.922;5.430;2023-10-19T02:16:37;16.30;99.90
36002;DHT22;22070;50.922;5.430;2023-10-19T02:19:03;16.30;99.90
36002;DHT22;22070;50.922;5.430;2023-10-19T02:21:29;16.30;99.90
36002;DHT22;22070;50.922;5.430;2023-10-19T02:23:59;16.20;99.90
36002;DHT22;22070;50.922;5.430;2023-10-19T02:26:25;16.30;99.90
36002;DHT22;22070;50.922;5.430;2023-10-19T02:28:56;16.40;99.90
36002;DHT22;22070;50.922;5.430;2023-10-19T02:31:23;16.40;99.90
36002;DHT22;22070;50.922;5.430;2023-10-19T02:33:51;16.40;99.90
36002;DHT22;22070;50.922;5.430;2023-10-19T02:36:30;16.40;99.90
36002;DHT22;22070;50.922;5.430;2023-10-19T02:38:57;16.30;99.90
36002;DHT22;22070;50.922;5.430;2023-10-19T02:41:25;16.30;99.90
36002;DHT22;22070;50.922;5.430;2023-10-19T02:43:52;16.40;99.90
36002;DHT22;22070;50.922;5.430;2023-10-19T02:46:36;16.30;99.90
36002;DHT22;22070;50.922;5.430;2023-10-19T02:49:08;16.40;99.90
36002;DHT22;22070;50.922;5.430;2023-10-19T02:51:41;16.30;99.90
36002;DHT22;22070;50.922;5.430;2023-10-19T02:54:11;16.20;99.90
36002;DHT22;22070;50.922;5.430;2023-10-19T02:56:43;16.20;99.90
36002;DHT22;22070;50.922;5.430;2023-10-19T02:59:13;16.20;99.90
36002;DHT22;22070;50.922;5.430;2023-10-19T03:01:42;16.20;99.90
36002;DHT22;22070;50.922;5.430;2023-10-19T03:04:10;16.30;99.90
36002;DHT22;22070;50.922;5.430;2023-10-19T03:06:38;16.30;99.90
36002;DHT22;22070;50.922;5.430;2023-10-19T03:09:07;16.40;99.90
36002;DHT22;22070;50.922;5.430;2023-10-19T03:11:43;16.30;99.90
36002;DHT22;22070;50.922;5.430;2023-10-19T03:14:10;16.30;99.90
36002;DHT22;22070;50.922;5.430;2023-10-19T03:16:39;16.20;99.90
36002;DHT22;22070;50.922;5.430;2023-10-19T03:19:08;16.20;99.90
36002;DHT22;22070;50.922;5.430;2023-10-19T03:21:34;16.30;99.90
36002;DHT22;22070;50.922;5.430;2023-10-19T03:24:10;16.20;99.90
36002;DHT22;22070;50.922;5.430;2023-10-19T03:26:49;16.10;99.90
36002;DHT22;22070;50.922;5.430;2023-10-19T03:29:16;16.10;99.90
36002;DHT22;22070;50.922;5.430;2023-10-19T03:31:48;16.10;99.90
36002;DHT22;22070;50.922;5.430;2023-10-19T03:34:14;16.10;99.90
36002;DHT22;22070;50.922;5.430;2023-10-19T03:36:43;16.00;99.90
36002;DHT22;22070;50.922;5.430;2023-10-19T03:39:09;16.00;99.90
36002;DHT22;22070;50.922;5.430;2023-10-19T03:41:42;15.90;99.90
36002;DHT22;22070;50.922;5.430;2023-10-19T03:44:11;15.90;99.90
36002;DHT22;22070;50.922;5.430;2023-10-19T03:46:51;16.00;99.90
36002;DHT22;22070;50.922;5.430;2023-10-19T03:49:35;15.90;99.90
36002;DHT22;22070;50.922;5.430;2023-10-19T03:52:04;15.80;99.90
36002;DHT22;22070;50.922;5.430;2023-10-19T03:54:36;15.80;99.90
36002;DHT22;22070;50.922;5.430;2023-10-19T03:57:06;15.80;99.90
36002;DHT22;22070;50.922;5.430;2023-10-19T03:59:40;15.70;99.90
36002;DHT22;22070;50.922;5.430;2023-10-19T04:02:09;15.80;99.90
36002;DHT22;22070;50.922;5.430;2023-10-19T04:04:38;15.80;99.90
36002;DHT22;22070;50.922;5.430;2023-10-19T04:07:04;15.70;99.90
36002;DHT22;22070;50.922;5.430;2023-10-19T04:09:37;15.60;99.90
36002;DHT22;22070;50.922;5.430;2023-10-19T04:12:25;15.60;99.90
36002;DHT22;22070;50.922;5.430;2023-10-19T04:14:54;15.70;99.90
36002;DHT22;22070;50.922;5.430;2023-10-19T04:17:20;15.60;99.90
36002;DHT22;22070;50.922;5.430;2023-10-19T04:19:49;15.50;99.90
36002;DHT22;22070;50.922;5.430;2023-10-19T04:22:17;15.60;99.90
36002;DHT22;22070;50.922;5.430;2023-10-19T04:24:52;15.60;99.90
36002;DHT22;22070;50.922;5.430;2023-10-19T04:27:19;15.70;99.90
36002;DHT22;22070;50.922;5.430;2023-10-19T04:29:48;15.70;99.90
36002;DHT22;22070;50.922;5.430;2023-10-19T04:32:15;15.60;99.90
36002;DHT22;22070;50.922;5.430;2023-10-19T04:34:48;15.60;99.90
36002;DHT22;22070;50.922;5.430;2023-10-19T04:37:14;15.60;99.90
36002;DHT22;22070;50.922;5.430;2023-10-19T04:39:44;15.60;99.90
36002;DHT22;22070;50.922;5.430;2023-10-19T04:42:10;15.50;99.90
36002;DHT22;22070;50.922;5.430;2023-10-19T04:44:35;15.60;99.90
36002;DHT22;22070;50.922;5.430;2023-10-19T04:47:01;15.60;99.90
36002;DHT22;22070;50.922;5.430;2023-10-19T04:49:27;15.50;99.90
36002;DHT22;22070;50.922;5.430;2023-10-19T04:51:53;15.50;99.90
36002;DHT22;22070;50.922;5.430;2023-10-19T04:54:19;15.60;99.90
36002;DHT22;22070;50.922;5.430;2023-10-19T04:56:45;15.50;99.90
36002;DHT22;22070;50.922;5.430;2023-10-19T04:59:10;15.60;99.90
36002;DHT22;22070;50.922;5.430;2023-10-19T05:01:36;15.50;99.90
36002;DHT22;22070;50.922;5.430;2023-10-19T05:04:02;15.60;99.90
36002;DHT22;22070;50.922;5.430;2023-10-19T05:06:28;15.60;99.90
36002;DHT22;22070;50.922;5.430;2023-10-19T05:08:54;15.70;99.90
36002;DHT22;22070;50.922;5.430;2023-10-19T05:11:20;15.70;99.90
36002;DHT22;22070;50.922;5.430;2023-10-19T05:13:46;15.70;99.90
36002;DHT22;22070;50.922;5.430;2023-10-19T05:16:11;15.70;99.90
36002;DHT22;22070;50.922;5.430;2023-10-19T05:18:37;15.70;99.90
36002;DHT22;22070;50.922;5.430;2023-10-19T05:21:04;15.70;99.90
36002;DHT22;22070;50.922;5.430;2023-10-19T05:23:30;15.70;99.90
36002;DHT22;22070;50.922;5.430;2023-10-19T05:26:04;15.80;99.90
36002;DHT22;22070;50.922;5.430;2023-10-19T05:28:30;15.80;99.90
36002;DHT22;22070;50.922;5.430;2023-10-19T05:30:57;15.80;99.90
36002;DHT22;22070;50.922;5.430;2023-10-19T05:33:24;15.80;99.90
36002;DHT22;22070;50.922;5.430;2023-10-19T05:35:51;15.80;99.90
36002;DHT22;22070;50.922;5.430;2023-10-19T05:38:17;15.80;99.90
36002;DHT22;22070;50.922;5.430;2023-10-19T05:40:45;15.70;99.90
36002;DHT22;22070;50.922;5.430;2023-10-19T05:43:11;15.70;99.90
36002;DHT22;22070;50.922;5.430;2023-10-19T05:45:37;15.70;99.90
36002;DHT22;22070;50.922;5.430;2023-10-19T05:48:03;15.70;99.90
36002;DHT22;22070;50.922;5.430;2023-10-19T05:50:29;15.70;99.90
36002;DHT22;22070;50.922;5.430;2023-10-19T05:52:55;15.80;99.90
36002;DHT22;22070;50.922;5.430;2023-10-19T05:55:21;15.70;99.90
36002;DHT22;22070;50.922;5.430;2023-10-19T05:57:47;15.70;99.90
36002;DHT22;22070;50.922;5.430;2023-10-19T06:00:14;15.70;99.90
36002;DHT22;22070;50.922;5.430;2023-10-19T06:02:45;15.80;99.90
36002;DHT22;22070;50.922;5.430;2023-10-19T06:05:12;15.80;99.90
36002;DHT22;22070;50.922;5.430;2023-10-19T06:07:38;15.80;99.90
36002;DHT22;22070;50.922;5.430;2023-10-19T06:10:04;15.80;99.90
36002;DHT22;22070;50.922;5.430;2023-10-19T06:12:33;15.80;99.90
36002;DHT22;22070;50.922;5.430;2023-10-19T06:15:00;15.80;99.90
36002;DHT22;22070;50.922;5.430;2023-10-19T06:17:29;15.80;99.90
36002;DHT22;22070;50.922;5.430;2023-10-19T06:19:55;15.80;99.90
36002;DHT22;22070;50.922;5.430;2023-10-19T06:22:21;15.80;99.90
36002;DHT22;22070;50.922;5.430;2023-10-19T06:24:47;15.80;99.90
36002;DHT22;22070;50.922;5.430;2023-10-19T06:27:12;15.70;99.90
36002;DHT22;22070;50.922;5.430;2023-10-19T06:29:38;15.80;99.90
36002;DHT22;22070;50.922;5.430;2023-10-19T06:32:04;15.80;99.90
36002;DHT22;22070;50.922;5.430;2023-10-19T06:34:29;15.70;99.90
36002;DHT22;22070;50.922;5.430;2023-10-19T06:36:55;15.80;99.90
36002;DHT22;22070;50.922;5.430;2023-10-19T06:39:21;15.80;99.90
36002;DHT22;22070;50.922;5.430;2023-10-19T06:41:47;15.80;99.90
